Time;durP1;ratioP1;P1;durP2;ratioP2;P2;SDS_P1;SDS_P2;PMS_P1;PMS_P2;Temp;Humidity;BMP_temperature;BMP_pressure;BME280_temperature;BME280_humidity;BME280_pressure;Samples;Min_cycle;Max_cycle;Signal;HPM_P1;HPM_P2
2023/01/27 00:00:58;;;;;;;22.73;12.23;;;3.90;99.90;;;;;;5087675;28;20574;-60
2023/01/27 00:03:24;;;;;;;23.17;12.18;;;3.80;99.90;;;;;;5067775;28;20095;-60
2023/01/27 00:05:50;;;;;;;20.42;12.50;;;3.80;99.90;;;;;;5086803;28;20047;-61
2023/01/27 00:08:16;;;;;;;20.55;12.80;;;3.80;99.90;;;;;;5087323;28;20475;-61
2023/01/27 00:10:42;;;;;;;24.58;12.90;;;3.80;99.90;;;;;;5086927;28;20546;-61
2023/01/27 00:13:26;;;;;;;21.02;11.90;;;3.80;99.90;;;;;;5105187;28;20035;-60
2023/01/27 00:15:52;;;;;;;18.70;12.02;;;3.80;99.90;;;;;;5068167;28;20843;-60
2023/01/27 00:18:18;;;;;;;23.25;13.32;;;3.80;99.90;;;;;;5092188;28;20027;-62
2023/01/27 00:26:14;;;;;;;22.40;12.80;;;3.70;99.90;;;;;;5067120;28;20044;-62
2023/01/27 00:28:41;;;;;;;21.80;12.55;;;3.70;99.90;;;;;;5086747;28;20052;-62
2023/01/27 00:33:54;;;;;;;20.10;12.30;;;3.70;99.90;;;;;;5086045;28;20126;-62
2023/01/27 00:36:21;;;;;;;18.25;9.63;;;3.70;99.90;;;;;;5067620;28;20179;-62
2023/01/27 00:38:46;;;;;;;17.70;10.27;;;3.70;99.90;;;;;;5087235;28;20078;-63
2023/01/27 00:41:18;;;;;;;16.20;9.07;;;3.70;99.90;;;;;;5075641;28;20043;-61
2023/01/27 00:43:49;;;;;;;13.40;8.13;;;3.80;99.90;;;;;;5069729;28;20032;-63
2023/01/27 00:46:16;;;;;;;16.25;8.05;;;3.80;99.90;;;;;;5067223;28;20058;-62
2023/01/27 00:48:42;;;;;;;16.15;8.27;;;3.80;99.90;;;;;;5094309;28;20047;-63
2023/01/27 00:51:08;;;;;;;15.65;8.95;;;3.80;99.90;;;;;;5088421;28;20391;-62
2023/01/27 00:53:34;;;;;;;17.63;10.65;;;3.80;99.90;;;;;;5087595;28;20059;-62
2023/01/27 00:55:59;;;;;;;18.90;11.82;;;3.80;99.90;;;;;;5078064;28;20039;-62
2023/01/27 00:58:25;;;;;;;22.95;11.80;;;3.80;99.90;;;;;;5085775;28;20043;-64
2023/01/27 01:01:02;;;;;;;20.67;10.70;;;3.80;99.90;;;;;;5068500;28;20048;-63
2023/01/27 01:03:30;;;;;;;17.90;9.50;;;3.80;99.90;;;;;;5073780;28;20450;-63
2023/01/27 01:05:57;;;;;;;15.98;8.35;;;3.80;99.90;;;;;;5087450;28;20055;-63
2023/01/27 01:08:22;;;;;;;14.77;8.27;;;3.80;99.90;;;;;;5105906;28;20478;-62
2023/01/27 01:10:48;;;;;;;15.57;6.85;;;3.80;99.90;;;;;;5091755;28;20036;-63
2023/01/27 01:13:13;;;;;;;13.85;6.63;;;3.80;99.90;;;;;;5084112;28;20113;-62
2023/01/27 01:15:40;;;;;;;14.82;7.10;;;3.80;99.90;;;;;;5083248;28;20046;-63
2023/01/27 01:18:07;;;;;;;12.70;6.70;;;3.80;99.90;;;;;;5085224;28;20035;-61
2023/01/27 01:20:41;;;;;;;13.30;6.07;;;3.80;99.90;;;;;;5094489;28;20043;-62
2023/01/27 01:23:07;;;;;;;15.25;6.60;;;3.80;99.90;;;;;;5087781;28;20042;-62
2023/01/27 01:25:34;;;;;;;11.75;5.78;;;3.80;99.90;;;;;;5105844;28;20086;-61
2023/01/27 01:28:00;;;;;;;14.13;5.88;;;3.80;99.90;;;;;;5087163;28;20048;-62
2023/01/27 01:30:26;;;;;;;10.25;5.68;;;3.80;99.90;;;;;;5101334;28;20525;-62
2023/01/27 01:32:53;;;;;;;11.55;5.55;;;3.80;99.90;;;;;;5070079;28;20043;-61
2023/01/27 01:35:19;;;;;;;13.18;5.93;;;3.80;99.90;;;;;;5066133;28;20048;-62
2023/01/27 01:37:44;;;;;;;12.32;5.32;;;3.80;99.90;;;;;;5067335;28;20048;-62
2023/01/27 01:40:11;;;;;;;10.65;5.47;;;3.80;99.90;;;;;;5066708;28;20082;-62
2023/01/27 01:42:49;;;;;;;10.65;5.07;;;3.80;99.90;;;;;;5066430;28;20044;-61
2023/01/27 01:45:30;;;;;;;12.73;5.25;;;3.90;99.90;;;;;;5098897;28;20051;-63
2023/01/27 01:47:58;;;;;;;13.85;5.40;;;3.90;99.90;;;;;;5068990;28;20135;-61
2023/01/27 01:50:23;;;;;;;9.93;4.75;;;3.90;99.90;;;;;;5084485;28;20047;-62
2023/01/27 01:52:49;;;;;;;10.20;4.65;;;3.90;99.90;;;;;;5069486;28;20060;-62
2023/01/27 01:55:14;;;;;;;9.13;4.68;;;4.00;99.90;;;;;;5084252;28;20091;-62
2023/01/27 01:57:42;;;;;;;10.35;4.65;;;3.90;99.90;;;;;;5082983;28;20543;-63
2023/01/27 02:00:09;;;;;;;11.48;4.30;;;3.90;99.90;;;;;;5084777;28;20781;-62
2023/01/27 02:02:36;;;;;;;10.15;4.30;;;4.00;99.90;;;;;;5085014;28;20115;-61
2023/01/27 02:05:26;;;;;;;8.25;3.65;;;4.00;99.90;;;;;;5103830;28;20039;-62
2023/01/27 02:08:04;;;;;;;12.63;3.88;;;4.00;99.90;;;;;;5104713;28;20104;-61
2023/01/27 02:10:32;;;;;;;8.85;4.00;;;4.10;99.90;;;;;;5096083;28;20081;-62
2023/01/27 02:12:57;;;;;;;7.93;3.38;;;4.10;99.90;;;;;;5084199;28;20064;-62
2023/01/27 02:15:23;;;;;;;8.02;3.47;;;4.10;99.90;;;;;;5082441;28;20074;-62
2023/01/27 02:17:49;;;;;;;7.15;3.00;;;4.10;99.90;;;;;;5084772;28;20435;-62
2023/01/27 02:20:39;;;;;;;7.93;3.00;;;4.10;99.90;;;;;;5083478;28;20119;-61
2023/01/27 02:23:19;;;;;;;8.95;3.75;;;4.10;99.90;;;;;;5084186;28;20048;-60
2023/01/27 02:25:55;;;;;;;5.93;2.80;;;4.10;99.90;;;;;;5082593;28;20440;-62
2023/01/27 02:28:21;;;;;;;8.45;2.55;;;4.10;99.90;;;;;;5117299;27;20093;-62
2023/01/27 02:30:46;;;;;;;5.72;2.88;;;4.20;99.90;;;;;;5083606;28;20035;-58
2023/01/27 02:33:13;;;;;;;6.78;2.58;;;4.20;99.90;;;;;;5083532;28;20040;-61
2023/01/27 02:36:00;;;;;;;9.23;2.70;;;4.20;99.90;;;;;;5084385;28;20113;-61
2023/01/27 02:38:39;;;;;;;6.30;2.92;;;4.20;99.90;;;;;;5084107;28;20082;-62
2023/01/27 02:41:19;;;;;;;9.60;3.08;;;4.20;99.90;;;;;;5082398;28;20162;-61
2023/01/27 02:43:44;;;;;;;6.30;2.60;;;4.20;99.90;;;;;;5082663;28;20043;-61
2023/01/27 02:46:10;;;;;;;6.00;2.53;;;4.10;99.90;;;;;;5083833;28;20036;-62
2023/01/27 02:48:35;;;;;;;5.40;2.33;;;4.20;99.90;;;;;;5082130;28;20490;-61
2023/01/27 02:51:01;;;;;;;7.13;2.22;;;4.20;99.90;;;;;;5084113;28;20052;-61
2023/01/27 02:53:26;;;;;;;5.38;2.30;;;4.10;99.90;;;;;;5083882;28;20048;-61
2023/01/27 02:55:52;;;;;;;6.47;2.42;;;4.10;99.90;;;;;;5096236;28;20104;-62
2023/01/27 02:58:17;;;;;;;6.53;2.50;;;4.10;99.90;;;;;;5085462;28;20713;-60
2023/01/27 03:00:43;;;;;;;9.20;2.63;;;4.10;99.90;;;;;;5066562;28;20043;-61
2023/01/27 03:03:09;;;;;;;6.55;2.58;;;4.10;99.90;;;;;;5065692;28;20100;-61
2023/01/27 03:05:34;;;;;;;6.53;2.28;;;4.10;99.90;;;;;;5083354;28;20123;-62
2023/01/27 03:08:00;;;;;;;9.45;2.50;;;4.10;99.90;;;;;;5084198;28;20054;-62
2023/01/27 03:10:26;;;;;;;5.50;2.10;;;4.00;99.90;;;;;;5083867;28;20067;-60
2023/01/27 03:12:51;;;;;;;8.13;2.85;;;4.00;99.90;;;;;;5083263;28;20046;-60
2023/01/27 03:18:12;;;;;;;7.90;2.65;;;4.00;99.90;;;;;;5083140;28;20052;-63
2023/01/27 03:20:47;;;;;;;5.97;2.80;;;4.00;99.90;;;;;;5093352;28;20034;-61
2023/01/27 03:23:19;;;;;;;5.95;2.38;;;4.00;99.90;;;;;;5103311;28;20120;-62
2023/01/27 03:25:46;;;;;;;7.47;2.60;;;3.90;99.90;;;;;;5084122;28;20441;-63
2023/01/27 03:28:13;;;;;;;8.10;3.00;;;3.90;99.90;;;;;;5101931;28;20096;-62
2023/01/27 03:30:39;;;;;;;10.65;3.42;;;3.90;99.90;;;;;;5085201;28;20184;-63
2023/01/27 03:33:06;;;;;;;5.70;2.58;;;3.90;99.90;;;;;;5096148;28;20635;-62
2023/01/27 03:35:47;;;;;;;7.68;2.80;;;3.90;99.90;;;;;;5064222;28;20048;-62
2023/01/27 03:46:32;;;;;;;9.70;3.05;;;3.80;99.90;;;;;;5087498;28;20044;-63
2023/01/27 03:48:58;;;;;;;6.60;2.63;;;3.80;99.90;;;;;;5091977;28;20040;-62
2023/01/27 03:51:25;;;;;;;9.25;3.10;;;3.80;99.90;;;;;;5083016;28;20113;-62
2023/01/27 03:53:51;;;;;;;7.13;2.83;;;3.80;99.90;;;;;;5082064;28;20048;-60
2023/01/27 03:56:18;;;;;;;6.63;2.70;;;3.80;99.90;;;;;;5082823;28;20128;-60
2023/01/27 03:58:44;;;;;;;6.97;2.55;;;3.80;99.90;;;;;;5083042;28;20044;-62
2023/01/27 04:01:19;;;;;;;7.47;2.47;;;3.90;99.90;;;;;;5065322;28;20274;-62
2023/01/27 04:06:50;;;;;;;9.55;3.03;;;3.80;99.90;;;;;;5103812;28;20059;-62
2023/01/27 04:09:23;;;;;;;8.50;2.72;;;3.80;99.90;;;;;;5096536;28;20236;-62
2023/01/27 04:11:55;;;;;;;8.95;3.35;;;3.80;99.90;;;;;;5064099;28;20055;-62
2023/01/27 04:14:24;;;;;;;7.95;2.33;;;3.80;99.90;;;;;;5063954;28;20036;-61
2023/01/27 04:16:56;;;;;;;8.70;2.80;;;3.80;99.90;;;;;;5064205;28;20109;-60
2023/01/27 04:19:21;;;;;;;7.47;2.65;;;3.80;99.90;;;;;;5081879;28;20036;-63
2023/01/27 04:21:47;;;;;;;6.97;2.67;;;3.80;99.90;;;;;;5063800;28;20054;-62
2023/01/27 04:24:21;;;;;;;9.88;2.85;;;3.80;99.90;;;;;;5081500;28;20043;-62
2023/01/27 04:26:48;;;;;;;9.20;2.67;;;3.70;99.90;;;;;;5063447;28;20051;-62
2023/01/27 04:29:14;;;;;;;9.48;3.03;;;3.70;99.90;;;;;;5064266;28;20695;-61
2023/01/27 04:31:41;;;;;;;6.55;2.97;;;3.70;99.90;;;;;;5087882;28;20229;-63
2023/01/27 04:34:07;;;;;;;6.53;2.50;;;3.70;99.90;;;;;;5072284;28;20254;-63
2023/01/27 04:36:33;;;;;;;10.98;2.90;;;3.70;99.90;;;;;;5064887;28;20058;-61
2023/01/27 04:38:59;;;;;;;17.73;3.97;;;3.70;99.90;;;;;;5100700;28;20051;-63
2023/01/27 04:41:24;;;;;;;10.38;2.90;;;3.70;99.90;;;;;;5105315;28;20054;-63
2023/01/27 04:43:50;;;;;;;7.63;2.95;;;3.70;99.90;;;;;;5086352;28;20981;-62
2023/01/27 04:46:15;;;;;;;10.73;2.80;;;3.70;99.90;;;;;;5068310;28;20053;-62
2023/01/27 04:48:41;;;;;;;8.77;3.42;;;3.70;99.90;;;;;;5085327;28;20052;-62
2023/01/27 04:51:06;;;;;;;8.25;3.08;;;3.70;99.90;;;;;;5051111;28;20116;-62
2023/01/27 04:53:32;;;;;;;8.57;2.97;;;3.70;99.90;;;;;;5085854;28;20745;-63
2023/01/27 04:56:04;;;;;;;10.07;3.00;;;3.70;99.90;;;;;;5050636;28;20115;-63
2023/01/27 04:58:30;;;;;;;8.65;3.20;;;3.70;99.90;;;;;;5068043;28;20155;-63
2023/01/27 05:00:55;;;;;;;7.20;2.90;;;3.60;99.90;;;;;;5051893;28;20115;-63
2023/01/27 05:03:21;;;;;;;7.80;3.40;;;3.60;99.90;;;;;;5085819;28;20044;-62
2023/01/27 05:05:46;;;;;;;9.05;3.50;;;3.60;99.90;;;;;;5067669;28;20406;-62
2023/01/27 05:08:12;;;;;;;8.50;2.67;;;3.60;99.90;;;;;;5085890;28;20093;-62
2023/01/27 05:10:37;;;;;;;7.88;3.55;;;3.60;99.90;;;;;;5085655;28;20040;-63
2023/01/27 05:13:03;;;;;;;8.85;3.75;;;3.60;99.90;;;;;;5066865;28;20054;-63
2023/01/27 05:15:29;;;;;;;8.50;3.97;;;3.60;99.90;;;;;;5085711;28;20136;-63
2023/01/27 05:17:55;;;;;;;13.60;5.70;;;3.60;99.90;;;;;;5085559;28;20305;-62
2023/01/27 05:20:21;;;;;;;11.95;5.30;;;3.50;99.90;;;;;;5074615;28;20035;-63
2023/01/27 05:22:47;;;;;;;10.02;5.10;;;3.50;99.90;;;;;;5087135;28;20123;-63
2023/01/27 05:25:12;;;;;;;12.45;5.10;;;3.50;99.90;;;;;;5075492;28;20130;-64
2023/01/27 05:27:38;;;;;;;12.75;4.95;;;3.50;99.90;;;;;;5066884;28;20565;-64
2023/01/27 05:30:04;;;;;;;11.77;4.65;;;3.50;99.90;;;;;;5078637;28;20681;-64
2023/01/27 05:32:29;;;;;;;12.10;4.72;;;3.50;99.90;;;;;;5092521;28;20043;-63
2023/01/27 05:34:55;;;;;;;8.50;4.57;;;3.50;99.90;;;;;;5083310;28;20069;-63
2023/01/27 05:37:20;;;;;;;7.97;4.00;;;3.50;99.90;;;;;;5086969;28;20047;-63
2023/01/27 05:39:46;;;;;;;10.23;4.32;;;3.50;99.90;;;;;;5086446;28;20051;-62
2023/01/27 05:42:12;;;;;;;10.52;5.30;;;3.50;99.90;;;;;;5073351;28;20058;-63
2023/01/27 05:44:37;;;;;;;9.07;3.67;;;3.50;99.90;;;;;;5092782;28;20059;-64
2023/01/27 05:47:03;;;;;;;7.82;3.13;;;3.50;99.90;;;;;;5078226;28;20082;-63
2023/01/27 05:49:28;;;;;;;10.45;3.38;;;3.50;99.90;;;;;;5097028;28;20035;-64
2023/01/27 05:51:54;;;;;;;7.75;3.15;;;3.40;99.90;;;;;;5086923;28;20358;-63
2023/01/27 05:54:19;;;;;;;7.05;3.17;;;3.40;99.90;;;;;;5102196;28;20058;-63
2023/01/27 05:56:45;;;;;;;10.00;3.30;;;3.40;99.90;;;;;;5099898;28;20128;-63
2023/01/27 05:59:11;;;;;;;7.45;2.97;;;3.40;99.90;;;;;;5066760;28;20066;-64
2023/01/27 06:01:36;;;;;;;6.70;2.95;;;3.40;99.90;;;;;;5083356;28;20032;-64
2023/01/27 06:04:03;;;;;;;7.60;3.00;;;3.30;99.90;;;;;;5084002;28;20043;-62
2023/01/27 06:06:30;;;;;;;13.00;2.58;;;3.30;99.90;;;;;;5091012;28;20040;-62
2023/01/27 06:08:56;;;;;;;7.18;2.80;;;3.30;99.90;;;;;;5105105;28;20734;-63
2023/01/27 06:11:23;;;;;;;6.63;2.40;;;3.30;99.90;;;;;;5103103;28;20796;-64
2023/01/27 06:13:50;;;;;;;7.22;3.17;;;3.30;99.90;;;;;;5100767;28;20088;-62
2023/01/27 06:16:18;;;;;;;9.60;3.00;;;3.30;99.90;;;;;;5101464;28;20115;-63
2023/01/27 06:18:45;;;;;;;7.22;2.75;;;3.30;99.90;;;;;;5099989;27;20228;-63
2023/01/27 06:21:12;;;;;;;7.43;2.83;;;3.30;99.90;;;;;;5084043;28;20036;-64
2023/01/27 06:23:38;;;;;;;11.63;2.90;;;3.30;99.90;;;;;;5083688;28;20276;-63
2023/01/27 06:26:09;;;;;;;10.38;2.20;;;3.30;99.90;;;;;;5083335;28;20036;-63
2023/01/27 06:28:38;;;;;;;8.75;2.22;;;3.30;99.90;;;;;;5095946;28;20070;-63
2023/01/27 06:31:09;;;;;;;9.93;3.40;;;3.30;99.90;;;;;;5101126;28;20047;-62
2023/01/27 06:33:35;;;;;;;5.40;2.13;;;3.30;99.90;;;;;;5081184;28;20073;-62
2023/01/27 06:36:09;;;;;;;7.18;2.42;;;3.30;99.90;;;;;;5082682;28;20080;-62
2023/01/27 06:38:35;;;;;;;7.75;2.15;;;3.40;99.90;;;;;;5080011;28;20093;-63
2023/01/27 06:41:01;;;;;;;7.40;2.38;;;3.40;99.90;;;;;;5096410;28;20028;-63
2023/01/27 06:43:26;;;;;;;8.27;2.33;;;3.30;99.90;;;;;;5092795;28;20039;-63
2023/01/27 06:45:53;;;;;;;7.35;2.42;;;3.40;99.90;;;;;;5099116;28;20502;-63
2023/01/27 06:48:18;;;;;;;7.28;2.55;;;3.40;99.90;;;;;;5096153;28;20035;-61
2023/01/27 06:50:44;;;;;;;9.45;2.42;;;3.40;99.90;;;;;;5101396;28;20039;-63
2023/01/27 06:53:10;;;;;;;7.40;3.15;;;3.40;99.90;;;;;;5101056;28;20055;-62
2023/01/27 06:55:40;;;;;;;11.90;2.60;;;3.40;99.90;;;;;;5081249;28;20036;-63
2023/01/27 06:58:07;;;;;;;9.52;2.30;;;3.40;99.90;;;;;;5101347;28;20180;-63
2023/01/27 07:00:32;;;;;;;7.65;2.50;;;3.40;99.90;;;;;;5082115;28;20038;-62
2023/01/27 07:02:58;;;;;;;8.85;2.90;;;3.30;99.90;;;;;;5071996;28;20036;-62
2023/01/27 07:05:24;;;;;;;11.63;2.70;;;3.30;99.90;;;;;;5081458;28;20169;-62
2023/01/27 07:07:49;;;;;;;6.13;2.60;;;3.30;99.90;;;;;;5083824;28;20039;-64
2023/01/27 07:10:15;;;;;;;7.43;3.05;;;3.30;99.90;;;;;;5083028;28;20513;-62
2023/01/27 07:12:41;;;;;;;8.13;2.80;;;3.30;99.90;;;;;;5080410;28;20402;-62
2023/01/27 07:15:08;;;;;;;7.65;2.70;;;3.30;99.90;;;;;;5065055;28;20123;-63
2023/01/27 07:17:34;;;;;;;7.50;2.63;;;3.30;99.90;;;;;;5079848;28;20830;-63
2023/01/27 07:20:00;;;;;;;6.75;2.40;;;3.30;99.90;;;;;;5096330;28;20035;-63
2023/01/27 07:22:25;;;;;;;9.77;2.83;;;3.30;99.90;;;;;;5080197;28;20040;-62
2023/01/27 07:24:51;;;;;;;8.85;2.97;;;3.30;99.90;;;;;;5082395;28;20125;-63
2023/01/27 07:27:17;;;;;;;7.65;3.20;;;3.30;99.90;;;;;;5070449;28;20609;-63
2023/01/27 07:29:43;;;;;;;16.25;3.78;;;3.30;99.90;;;;;;5075583;28;20131;-61
2023/01/27 07:32:08;;;;;;;12.68;3.90;;;3.30;99.90;;;;;;5083858;28;20517;-61
2023/01/27 07:34:34;;;;;;;10.90;3.50;;;3.30;99.90;;;;;;5078309;28;20527;-61
2023/01/27 07:37:00;;;;;;;11.88;4.22;;;3.30;99.90;;;;;;5081354;28;20044;-61
2023/01/27 07:39:26;;;;;;;10.82;4.15;;;3.30;99.90;;;;;;5064221;28;20048;-62
2023/01/27 07:41:52;;;;;;;12.60;4.63;;;3.30;99.90;;;;;;5064160;28;20067;-62
2023/01/27 07:44:17;;;;;;;14.43;4.30;;;3.30;99.90;;;;;;5097001;28;20080;-61
2023/01/27 07:46:43;;;;;;;10.02;4.22;;;3.30;99.90;;;;;;5065161;28;20540;-63
2023/01/27 07:49:11;;;;;;;15.25;4.80;;;3.30;99.90;;;;;;5082820;28;20044;-61
2023/01/27 07:51:37;;;;;;;13.90;4.15;;;3.30;99.90;;;;;;5083078;28;20048;-60
2023/01/27 07:54:03;;;;;;;14.15;4.60;;;3.40;99.90;;;;;;5078416;28;20062;-61
2023/01/27 07:56:29;;;;;;;10.27;4.40;;;3.40;99.90;;;;;;5115167;28;20131;-62
2023/01/27 07:58:54;;;;;;;11.10;4.15;;;3.40;99.90;;;;;;5098392;28;20159;-61
2023/01/27 08:01:20;;;;;;;18.33;4.35;;;3.40;99.90;;;;;;5115888;28;20028;-60
2023/01/27 08:03:46;;;;;;;9.90;3.60;;;3.30;99.90;;;;;;5082390;28;20051;-62
2023/01/27 08:06:12;;;;;;;10.75;3.53;;;3.30;99.90;;;;;;5083154;28;20032;-61
2023/01/27 08:08:38;;;;;;;8.25;4.10;;;3.40;99.90;;;;;;5083245;28;20458;-62
2023/01/27 08:11:07;;;;;;;9.48;4.05;;;3.40;99.90;;;;;;5080891;28;20097;-61
2023/01/27 08:13:34;;;;;;;9.50;3.78;;;3.40;99.90;;;;;;5083306;28;20044;-62
2023/01/27 08:16:01;;;;;;;12.52;3.65;;;3.40;99.90;;;;;;5085843;28;20051;-60
2023/01/27 08:18:28;;;;;;;11.13;4.15;;;3.40;99.90;;;;;;5085987;28;20040;-62
2023/01/27 08:20:57;;;;;;;10.50;4.10;;;3.30;99.90;;;;;;5098180;28;20040;-60
2023/01/27 08:23:23;;;;;;;13.93;4.43;;;3.30;99.90;;;;;;5106476;27;20027;-61
2023/01/27 08:25:50;;;;;;;11.07;3.35;;;3.20;99.90;;;;;;5125450;27;20430;-62
2023/01/27 08:28:17;;;;;;;15.60;4.10;;;3.20;99.90;;;;;;5086954;28;20044;-62
2023/01/27 08:30:43;;;;;;;11.65;4.07;;;3.20;99.90;;;;;;5104204;28;20044;-60
2023/01/27 08:33:08;;;;;;;17.95;4.07;;;3.10;99.90;;;;;;5137998;27;20043;-61
2023/01/27 08:35:35;;;;;;;11.88;3.88;;;3.10;99.90;;;;;;5107296;28;20063;-61
2023/01/27 08:38:01;;;;;;;13.32;4.35;;;3.10;99.90;;;;;;5105660;28;20450;-62
2023/01/27 08:40:27;;;;;;;11.75;4.88;;;3.10;99.90;;;;;;5106996;28;20032;-61
2023/01/27 08:42:52;;;;;;;10.95;4.55;;;3.20;99.90;;;;;;5099511;28;20560;-62
2023/01/27 08:45:18;;;;;;;14.65;4.40;;;3.30;99.90;;;;;;5085922;28;20526;-61
2023/01/27 08:47:43;;;;;;;12.05;5.45;;;3.40;99.90;;;;;;5086133;28;20130;-60
2023/01/27 08:50:10;;;;;;;15.63;4.15;;;3.50;99.90;;;;;;5084548;28;20459;-62
2023/01/27 08:52:35;;;;;;;10.73;4.60;;;3.60;99.90;;;;;;5086416;28;20060;-62
2023/01/27 08:55:01;;;;;;;9.68;4.00;;;3.60;99.90;;;;;;5087580;28;20525;-61
2023/01/27 08:57:26;;;;;;;9.80;4.38;;;3.60;99.90;;;;;;5106589;28;20247;-63
2023/01/27 08:59:52;;;;;;;12.82;4.15;;;3.60;99.90;;;;;;5105612;28;20038;-62
2023/01/27 09:02:19;;;;;;;11.50;4.30;;;3.60;99.90;;;;;;5079175;28;20047;-63
2023/01/27 09:04:44;;;;;;;12.82;4.63;;;3.60;99.90;;;;;;5067365;28;20073;-62
2023/01/27 09:07:10;;;;;;;10.82;4.38;;;3.60;99.90;;;;;;5067915;28;20115;-61
2023/01/27 09:09:36;;;;;;;12.02;4.68;;;3.50;99.90;;;;;;5086108;28;20044;-61
2023/01/27 09:12:01;;;;;;;17.05;5.10;;;3.50;99.90;;;;;;5085649;28;20534;-62
2023/01/27 09:14:27;;;;;;;11.18;4.20;;;3.50;99.90;;;;;;5085710;28;20351;-62
2023/01/27 09:16:52;;;;;;;14.65;4.22;;;3.50;99.90;;;;;;5091106;28;20064;-63
2023/01/27 09:19:18;;;;;;;12.13;4.43;;;3.50;99.90;;;;;;5093479;28;20112;-62
2023/01/27 09:21:43;;;;;;;8.73;3.83;;;3.50;99.90;;;;;;5104923;28;20036;-62
2023/01/27 09:24:10;;;;;;;12.20;4.47;;;3.50;99.90;;;;;;5078044;28;20039;-61
2023/01/27 09:26:35;;;;;;;17.63;5.18;;;3.50;99.90;;;;;;5085700;28;20051;-63
2023/01/27 09:29:01;;;;;;;11.45;4.43;;;3.50;99.90;;;;;;5099638;28;20035;-61
2023/01/27 09:31:26;;;;;;;11.48;4.15;;;3.60;99.90;;;;;;5067641;28;20039;-62
2023/01/27 09:33:52;;;;;;;13.73;4.00;;;3.60;99.90;;;;;;5066547;28;20036;-62
2023/01/27 09:36:20;;;;;;;13.73;4.00;;;3.60;99.90;;;;;;5066843;28;20039;-62
2023/01/27 09:38:56;;;;;;;11.73;3.88;;;3.60;99.90;;;;;;5067199;28;20092;-62
2023/01/27 09:41:57;;;;;;;11.85;3.75;;;3.60;99.90;;;;;;5084601;28;20443;-61
2023/01/27 09:44:31;;;;;;;11.35;3.47;;;3.70;99.90;;;;;;5083923;28;20670;-62
2023/01/27 09:47:46;;;;;;;6.93;2.88;;;3.80;99.90;;;;;;5091413;28;20054;-62
2023/01/27 09:50:32;;;;;;;11.75;3.22;;;3.90;99.90;;;;;;5063443;28;20059;-62
2023/01/27 09:53:08;;;;;;;9.98;3.13;;;4.00;99.90;;;;;;5071105;28;20063;-62
2023/01/27 09:55:52;;;;;;;8.00;3.17;;;4.10;99.90;;;;;;5085232;28;20558;-61
2023/01/27 09:58:35;;;;;;;13.15;3.25;;;4.10;99.90;;;;;;5084861;28;20506;-62
2023/01/27 10:01:07;;;;;;;7.53;3.45;;;4.20;99.90;;;;;;5085319;28;20161;-60
2023/01/27 10:03:35;;;;;;;9.40;3.42;;;4.30;99.90;;;;;;5084128;28;20799;-61
2023/01/27 10:06:32;;;;;;;7.22;2.88;;;4.40;99.90;;;;;;5085021;28;20459;-61
2023/01/27 10:09:27;;;;;;;9.13;3.33;;;4.40;99.90;;;;;;5083389;28;20047;-62
2023/01/27 10:12:04;;;;;;;9.60;3.30;;;4.40;99.90;;;;;;5083384;28;20065;-61
2023/01/27 10:14:47;;;;;;;7.60;3.40;;;4.40;99.90;;;;;;5096083;28;20119;-61
2023/01/27 10:17:18;;;;;;;7.47;3.03;;;4.50;99.90;;;;;;5085134;28;20044;-60
2023/01/27 10:19:59;;;;;;;7.93;3.22;;;4.40;99.90;;;;;;5086900;28;20140;-62
2023/01/27 10:23:02;;;;;;;10.90;2.92;;;4.30;99.90;;;;;;5138880;27;20035;-60
2023/01/27 10:25:46;;;;;;;9.63;3.15;;;4.20;99.90;;;;;;5098376;28;20036;-63
2023/01/27 10:28:23;;;;;;;7.25;3.28;;;4.20;99.90;;;;;;5117757;27;20071;-63
2023/01/27 10:30:58;;;;;;;6.28;2.65;;;4.10;99.90;;;;;;5085016;28;20063;-63
2023/01/27 10:33:42;;;;;;;5.72;2.65;;;4.10;99.90;;;;;;5097045;28;20425;-62
2023/01/27 10:36:23;;;;;;;9.18;3.05;;;4.00;99.90;;;;;;5083913;28;20039;-62
2023/01/27 10:39:23;;;;;;;6.70;3.03;;;4.00;99.90;;;;;;5083425;28;20039;-61
2023/01/27 10:42:05;;;;;;;5.93;3.17;;;3.90;99.90;;;;;;5079354;28;20147;-61
2023/01/27 10:44:51;;;;;;;7.30;3.67;;;3.90;99.90;;;;;;5083993;28;20039;-61
2023/01/27 10:47:49;;;;;;;7.38;3.30;;;3.80;99.90;;;;;;5084974;28;20123;-61
2023/01/27 10:50:18;;;;;;;8.32;3.17;;;3.80;99.90;;;;;;5083894;28;20036;-62
2023/01/27 10:52:53;;;;;;;7.03;3.03;;;3.80;99.90;;;;;;5082917;28;20488;-60
2023/01/27 10:55:24;;;;;;;6.22;2.97;;;3.70;99.90;;;;;;5084925;28;20672;-60
2023/01/27 10:58:09;;;;;;;5.97;2.92;;;3.70;99.90;;;;;;5084496;28;20040;-62
2023/01/27 11:00:41;;;;;;;5.47;3.08;;;3.80;99.90;;;;;;5084604;28;20031;-63
2023/01/27 11:03:32;;;;;;;7.38;3.10;;;3.80;99.90;;;;;;5084159;28;20115;-62
2023/01/27 11:06:19;;;;;;;7.80;3.33;;;3.80;99.90;;;;;;5117084;27;20079;-60
2023/01/27 11:08:50;;;;;;;7.10;3.33;;;3.80;99.90;;;;;;5084183;28;20631;-62
2023/01/27 11:14:24;;;;;;;6.07;2.90;;;3.90;99.90;;;;;;5083431;28;20052;-62
2023/01/27 11:16:53;;;;;;;6.95;3.35;;;3.90;99.90;;;;;;5082722;28;20058;-62
2023/01/27 11:19:33;;;;;;;7.57;3.30;;;3.90;99.90;;;;;;5081849;28;20036;-63
2023/01/27 11:22:01;;;;;;;4.97;2.80;;;3.90;99.90;;;;;;5082523;28;20040;-62
2023/01/27 11:24:45;;;;;;;6.50;3.10;;;4.00;99.90;;;;;;5064805;28;20550;-62
2023/01/27 11:27:51;;;;;;;6.78;3.42;;;4.00;99.90;;;;;;5082289;28;20040;-62
2023/01/27 11:30:32;;;;;;;6.10;3.30;;;4.00;99.90;;;;;;5067944;28;20062;-63
2023/01/27 11:33:17;;;;;;;5.47;2.65;;;4.00;99.90;;;;;;5082778;28;20573;-62
2023/01/27 11:35:43;;;;;;;5.43;2.65;;;3.90;99.90;;;;;;5083554;28;20039;-62
2023/01/27 11:38:15;;;;;;;5.20;2.95;;;3.90;99.90;;;;;;5083929;28;20510;-63
2023/01/27 11:40:42;;;;;;;6.00;2.95;;;3.90;99.90;;;;;;5071729;28;20251;-63
2023/01/27 11:43:14;;;;;;;5.63;2.80;;;3.90;99.90;;;;;;5103454;28;20143;-61
2023/01/27 11:45:40;;;;;;;4.85;2.63;;;3.90;99.90;;;;;;5085692;28;20054;-60
2023/01/27 11:48:12;;;;;;;5.95;2.60;;;3.90;99.90;;;;;;5085047;28;20089;-63
2023/01/27 11:50:41;;;;;;;4.97;2.55;;;3.90;99.90;;;;;;5086873;28;20054;-61
2023/01/27 11:53:35;;;;;;;6.57;2.92;;;3.90;99.90;;;;;;5087128;28;20052;-62
2023/01/27 11:56:09;;;;;;;5.43;3.00;;;3.90;99.90;;;;;;5086882;28;20109;-63
2023/01/27 11:59:00;;;;;;;7.70;2.90;;;3.90;99.90;;;;;;5102581;28;20047;-63
2023/01/27 12:01:47;;;;;;;5.53;2.90;;;3.90;99.90;;;;;;5066688;28;20521;-62
2023/01/27 12:04:28;;;;;;;7.15;3.00;;;3.90;99.90;;;;;;5084070;28;20046;-62
2023/01/27 12:07:15;;;;;;;5.88;3.00;;;3.80;99.90;;;;;;5088269;28;20102;-63
2023/01/27 12:09:41;;;;;;;8.57;3.80;;;3.80;99.90;;;;;;5106606;28;20062;-63
2023/01/27 12:12:21;;;;;;;5.95;2.75;;;3.80;99.90;;;;;;5109248;27;20066;-61
2023/01/27 12:14:58;;;;;;;6.60;2.40;;;3.80;99.90;;;;;;5093987;28;20043;-61
2023/01/27 12:17:50;;;;;;;4.53;2.42;;;3.80;99.90;;;;;;5068770;28;20051;-63
2023/01/27 12:20:56;;;;;;;6.35;2.53;;;3.80;99.90;;;;;;5093461;28;20039;-63
2023/01/27 12:23:35;;;;;;;5.47;2.70;;;3.80;99.90;;;;;;5055780;28;20487;-62
2023/01/27 12:26:01;;;;;;;5.22;2.83;;;3.80;99.90;;;;;;5107065;28;20059;-62
2023/01/27 12:28:44;;;;;;;5.35;2.90;;;3.80;99.90;;;;;;5089674;28;20145;-63
2023/01/27 12:31:22;;;;;;;6.93;3.17;;;3.80;99.90;;;;;;5106494;28;20073;-63
2023/01/27 12:34:06;;;;;;;6.60;2.38;;;3.80;99.90;;;;;;5085941;28;20506;-62
2023/01/27 12:36:39;;;;;;;5.13;2.45;;;3.80;99.90;;;;;;5086842;28;20040;-63
2023/01/27 12:39:22;;;;;;;5.25;2.58;;;3.80;99.90;;;;;;5086296;28;20036;-62
2023/01/27 12:41:49;;;;;;;5.40;2.50;;;3.80;99.90;;;;;;5098128;28;20035;-61
2023/01/27 12:44:17;;;;;;;6.28;3.03;;;3.80;99.90;;;;;;5101390;28;20049;-63
2023/01/27 12:47:20;;;;;;;5.53;3.58;;;3.80;99.90;;;;;;5086890;28;20071;-63
2023/01/27 12:49:47;;;;;;;8.48;3.80;;;3.80;99.90;;;;;;5067288;28;20040;-62
2023/01/27 12:52:19;;;;;;;6.72;3.92;;;3.80;99.90;;;;;;5086239;28;20043;-63
2023/01/27 12:54:45;;;;;;;6.97;4.05;;;3.80;99.90;;;;;;5047221;28;20052;-62
2023/01/27 12:57:14;;;;;;;7.45;3.55;;;3.80;99.90;;;;;;5067651;28;20044;-61
2023/01/27 12:59:56;;;;;;;7.53;3.58;;;3.80;99.90;;;;;;5075485;28;20296;-62
2023/01/27 13:02:24;;;;;;;9.43;3.38;;;3.70;99.90;;;;;;5048422;28;20571;-63
2023/01/27 13:04:55;;;;;;;6.65;3.47;;;3.70;99.90;;;;;;5065578;28;20052;-63
2023/01/27 13:07:38;;;;;;;6.95;3.63;;;3.70;99.90;;;;;;5066584;28;20361;-62
2023/01/27 13:10:14;;;;;;;8.27;3.47;;;3.70;99.90;;;;;;5066089;28;20044;-63
2023/01/27 13:12:49;;;;;;;5.63;3.03;;;3.70;99.90;;;;;;5047894;28;20078;-63
2023/01/27 13:15:28;;;;;;;6.10;3.53;;;3.60;99.90;;;;;;5066281;28;20441;-63
2023/01/27 13:17:55;;;;;;;6.68;3.63;;;3.60;99.90;;;;;;5078807;28;20036;-62
2023/01/27 13:20:38;;;;;;;6.13;3.55;;;3.60;99.90;;;;;;5073850;28;20038;-61
2023/01/27 13:23:10;;;;;;;6.22;3.60;;;3.60;99.90;;;;;;5085509;28;20163;-62
2023/01/27 13:25:53;;;;;;;8.10;3.85;;;3.60;99.90;;;;;;5082865;28;20084;-62
2023/01/27 13:28:42;;;;;;;6.95;3.83;;;3.60;99.90;;;;;;5066378;28;20122;-62
2023/01/27 13:31:15;;;;;;;6.70;3.78;;;3.60;99.90;;;;;;5084261;28;20116;-62
2023/01/27 13:33:53;;;;;;;8.10;4.30;;;3.60;99.90;;;;;;5046931;28;20043;-63
2023/01/27 13:36:55;;;;;;;7.75;3.80;;;3.70;99.90;;;;;;5047289;28;20033;-63